Time;durP1;ratioP1;P1;durP2;ratioP2;P2;SDS_P1;SDS_P2;PMS_P1;PMS_P2;Temp;Humidity;BMP_temperature;BMP_pressure;BME280_temperature;BME280_humidity;BME280_pressure;Samples;Min_cycle;Max_cycle;Signal;HPM_P1;HPM_P2
2022/10/29 00:00:17;;;;;;;17.08;7.20;;;17.80;99.90;;;;;;2093740;28;20029;-70
2022/10/29 00:01:18;;;;;;;19.42;7.40;;;17.80;99.90;;;;;;2092020;28;20021;-70
2022/10/29 00:02:18;;;;;;;11.20;6.43;;;17.80;99.90;;;;;;2089902;28;20039;-70
2022/10/29 00:03:20;;;;;;;12.25;6.13;;;17.80;99.90;;;;;;2094791;28;20082;-72
2022/10/29 00:04:20;;;;;;;14.32;6.80;;;17.80;99.90;;;;;;2094559;28;20029;-72
2022/10/29 00:05:21;;;;;;;17.30;6.93;;;17.80;99.90;;;;;;2095906;28;20092;-70
2022/10/29 00:06:21;;;;;;;17.13;7.07;;;17.70;99.90;;;;;;2096607;28;20020;-70
2022/10/29 00:07:22;;;;;;;15.93;6.53;;;17.80;99.90;;;;;;2096474;28;20496;-70
2022/10/29 00:08:23;;;;;;;14.88;6.65;;;17.70;99.90;;;;;;2095692;28;20788;-70
2022/10/29 00:09:23;;;;;;;14.95;6.70;;;17.70;99.90;;;;;;2096034;28;20029;-70
2022/10/29 00:10:24;;;;;;;15.75;6.80;;;17.70;99.90;;;;;;2095236;28;20102;-71
2022/10/29 00:11:25;;;;;;;17.73;7.50;;;17.70;99.90;;;;;;2095831;28;20111;-71
2022/10/29 00:12:26;;;;;;;15.77;6.75;;;17.70;99.90;;;;;;2095617;28;20024;-71
2022/10/29 00:13:26;;;;;;;15.00;6.35;;;17.70;99.90;;;;;;2094534;28;20154;-71
2022/10/29 00:14:27;;;;;;;12.90;6.10;;;17.70;99.90;;;;;;2094991;28;20033;-71
2022/10/29 00:15:28;;;;;;;11.57;6.45;;;17.70;99.90;;;;;;2095878;28;20028;-71
2022/10/29 00:16:38;;;;;;;13.00;6.82;;;17.70;99.90;;;;;;2094551;28;20032;-71
2022/10/29 00:17:38;;;;;;;14.20;6.88;;;17.70;99.90;;;;;;2096202;28;20036;-71
2022/10/29 00:18:39;;;;;;;18.25;6.95;;;17.70;99.90;;;;;;2093882;28;20103;-71
2022/10/29 00:19:40;;;;;;;18.55;6.97;;;17.70;99.90;;;;;;2093557;28;20056;-71
2022/10/29 00:20:40;;;;;;;16.42;6.95;;;17.70;99.90;;;;;;2095309;28;20045;-71
2022/10/29 00:21:41;;;;;;;14.57;7.10;;;17.70;99.90;;;;;;2096299;28;20067;-71
2022/10/29 00:22:41;;;;;;;14.43;6.72;;;17.70;99.90;;;;;;2096597;28;20490;-71
2022/10/29 00:23:42;;;;;;;14.57;6.80;;;17.70;99.90;;;;;;2092970;28;20028;-71
2022/10/29 00:24:43;;;;;;;11.23;6.20;;;17.70;99.90;;;;;;2093868;28;20144;-71
2022/10/29 00:25:43;;;;;;;11.73;5.80;;;17.60;99.90;;;;;;2094680;28;20016;-71
2022/10/29 00:26:44;;;;;;;15.60;6.72;;;17.70;99.90;;;;;;2094013;28;20396;-71
2022/10/29 00:27:44;;;;;;;16.75;6.82;;;17.70;99.90;;;;;;2097101;28;20040;-71
2022/10/29 00:28:45;;;;;;;11.95;6.68;;;17.70;99.90;;;;;;2094949;28;20602;-71
2022/10/29 00:29:46;;;;;;;21.42;7.95;;;17.60;99.90;;;;;;2093255;28;20037;-71
2022/10/29 00:30:46;;;;;;;14.57;6.70;;;17.60;99.90;;;;;;2096713;28;20035;-71
2022/10/29 00:31:49;;;;;;;15.32;7.25;;;17.60;99.90;;;;;;2094469;28;20016;-71
2022/10/29 00:32:49;;;;;;;14.80;7.18;;;17.60;99.90;;;;;;2095613;28;20039;-71
2022/10/29 00:33:51;;;;;;;10.35;6.20;;;17.60;99.90;;;;;;2095582;28;20033;-71
2022/10/29 00:34:52;;;;;;;12.82;6.03;;;17.60;99.90;;;;;;2093902;28;20035;-71
2022/10/29 00:35:58;;;;;;;17.45;7.07;;;17.60;99.90;;;;;;2096140;28;20063;-71
2022/10/29 00:36:58;;;;;;;13.90;6.72;;;17.60;99.90;;;;;;2095940;28;20516;-71
2022/10/29 00:37:59;;;;;;;22.02;7.78;;;17.60;99.90;;;;;;2095169;28;20029;-71
2022/10/29 00:38:59;;;;;;;17.80;7.90;;;17.60;99.90;;;;;;2095263;28;20108;-71
2022/10/29 00:40:00;;;;;;;17.17;7.63;;;17.60;99.90;;;;;;2094017;28;20059;-71
2022/10/29 00:41:02;;;;;;;15.23;7.18;;;17.60;99.90;;;;;;2092239;28;20032;-71
2022/10/29 00:42:03;;;;;;;13.13;6.18;;;17.60;99.90;;;;;;2094637;28;20500;-71
2022/10/29 00:43:16;;;;;;;13.93;6.22;;;17.60;99.90;;;;;;2093024;28;20095;-71
2022/10/29 00:44:16;;;;;;;16.17;6.45;;;17.60;99.90;;;;;;2094388;28;20067;-71
2022/10/29 00:45:19;;;;;;;17.20;7.35;;;17.60;99.90;;;;;;2095811;28;20051;-71
2022/10/29 00:46:29;;;;;;;13.35;6.57;;;17.60;99.90;;;;;;2094708;28;20017;-71
2022/10/29 00:47:36;;;;;;;14.40;6.85;;;17.60;99.90;;;;;;2094775;28;20024;-71
2022/10/29 00:48:47;;;;;;;13.07;6.80;;;17.60;99.90;;;;;;2095441;28;20020;-71
2022/10/29 00:50:01;;;;;;;14.70;6.95;;;17.60;99.90;;;;;;2094127;28;20028;-71
2022/10/29 00:51:05;;;;;;;12.23;6.53;;;17.60;99.90;;;;;;2094742;28;20047;-71
2022/10/29 00:52:08;;;;;;;15.07;7.53;;;17.60;99.90;;;;;;2095529;28;20027;-71
2022/10/29 00:53:08;;;;;;;14.10;6.25;;;17.60;99.90;;;;;;2093729;28;20433;-71
2022/10/29 00:54:11;;;;;;;12.30;6.13;;;17.60;99.90;;;;;;2092468;28;20032;-71
2022/10/29 00:55:14;;;;;;;13.18;6.57;;;17.60;99.90;;;;;;2095900;28;20028;-71
2022/10/29 00:56:15;;;;;;;17.67;6.90;;;17.60;99.90;;;;;;2094272;28;20032;-71
2022/10/29 00:57:25;;;;;;;12.82;5.95;;;17.60;99.90;;;;;;2093773;28;20670;-71
2022/10/29 00:58:26;;;;;;;13.50;6.90;;;17.60;99.90;;;;;;2095733;28;20031;-71
2022/10/29 00:59:27;;;;;;;13.30;5.65;;;17.60;99.90;;;;;;2094373;28;20056;-71
2022/10/29 01:00:27;;;;;;;14.95;6.30;;;17.60;99.90;;;;;;2093790;28;20025;-71
2022/10/29 01:01:28;;;;;;;12.85;5.93;;;17.50;99.90;;;;;;2094212;28;20032;-71
2022/10/29 01:02:30;;;;;;;14.65;6.95;;;17.60;99.90;;;;;;2092861;28;20052;-71
2022/10/29 01:03:31;;;;;;;13.82;6.93;;;17.60;99.90;;;;;;2092108;28;20024;-71
2022/10/29 01:04:32;;;;;;;13.95;7.38;;;17.60;99.90;;;;;;2094806;28;20016;-71
2022/10/29 01:05:33;;;;;;;11.77;6.60;;;17.60;99.90;;;;;;2092655;28;20700;-71
2022/10/29 01:06:34;;;;;;;14.25;6.53;;;17.60;99.90;;;;;;2095284;28;20501;-71
2022/10/29 01:07:35;;;;;;;14.95;6.65;;;17.50;99.90;;;;;;2093725;28;20400;-71
2022/10/29 01:08:35;;;;;;;15.23;7.07;;;17.50;99.90;;;;;;2095588;28;20099;-71
2022/10/29 01:09:36;;;;;;;12.40;6.25;;;17.60;99.90;;;;;;2095091;28;20078;-71
2022/10/29 01:11:25;;;;;;;13.02;6.50;;;17.60;99.90;;;;;;2094175;28;20016;-71
2022/10/29 01:12:53;;;;;;;11.43;6.47;;;17.60;99.90;;;;;;2061492;28;20045;-71
2022/10/29 01:14:08;;;;;;;16.27;6.78;;;17.50;99.90;;;;;;2060181;28;20816;-71
2022/10/29 01:15:23;;;;;;;14.20;6.88;;;17.50;99.90;;;;;;2060154;28;20517;-71
2022/10/29 01:17:03;;;;;;;12.75;6.72;;;17.50;99.90;;;;;;2061193;28;20465;-71
2022/10/29 01:18:13;;;;;;;13.23;6.72;;;17.50;99.90;;;;;;2077641;28;20043;-71
2022/10/29 01:19:37;;;;;;;15.23;6.75;;;17.40;99.90;;;;;;2095906;28;20061;-71
2022/10/29 01:20:53;;;;;;;11.65;6.82;;;17.40;99.90;;;;;;2093806;28;20036;-71
2022/10/29 01:22:25;;;;;;;10.48;5.90;;;17.40;99.90;;;;;;2094804;28;20112;-71
2022/10/29 01:23:31;;;;;;;13.65;6.97;;;17.40;99.90;;;;;;2095003;28;20028;-71
2022/10/29 01:24:58;;;;;;;10.00;6.40;;;17.40;99.90;;;;;;2093891;28;20451;-71
2022/10/29 01:26:28;;;;;;;14.05;6.38;;;17.40;99.90;;;;;;2094586;28;20025;-71
2022/10/29 01:27:39;;;;;;;14.82;7.18;;;17.30;99.90;;;;;;2094245;28;20028;-71
2022/10/29 01:28:52;;;;;;;12.43;6.30;;;17.30;99.90;;;;;;2094990;28;20024;-71
2022/10/29 01:30:02;;;;;;;15.23;6.22;;;17.40;99.90;;;;;;2094179;28;20162;-71
2022/10/29 01:31:30;;;;;;;13.82;7.20;;;17.30;99.90;;;;;;2094303;28;20079;-71
2022/10/29 01:32:50;;;;;;;15.70;6.65;;;17.40;99.90;;;;;;2094379;28;20030;-71
2022/10/29 01:34:12;;;;;;;17.73;6.88;;;17.30;99.90;;;;;;2095730;28;20068;-71
2022/10/29 01:35:37;;;;;;;15.38;6.32;;;17.30;99.90;;;;;;2094137;28;20074;-71
2022/10/29 01:36:50;;;;;;;11.63;6.85;;;17.40;99.90;;;;;;2094505;28;20103;-71
2022/10/29 01:38:15;;;;;;;24.25;8.30;;;17.30;99.90;;;;;;2095418;28;20024;-71
2022/10/29 01:39:28;;;;;;;15.55;6.93;;;17.30;99.90;;;;;;2095977;28;20033;-71
2022/10/29 01:40:39;;;;;;;14.40;6.40;;;17.30;99.90;;;;;;2095248;28;20104;-71
2022/10/29 01:42:09;;;;;;;13.48;6.55;;;17.20;99.90;;;;;;2094095;28;20032;-71
2022/10/29 01:43:21;;;;;;;17.00;6.60;;;17.20;99.90;;;;;;2093954;28;20103;-71
2022/10/29 01:44:27;;;;;;;15.27;6.80;;;17.20;99.90;;;;;;2095021;28;20081;-71
2022/10/29 01:45:37;;;;;;;9.48;5.82;;;17.20;99.90;;;;;;2095656;28;20095;-71
2022/10/29 01:46:53;;;;;;;13.05;6.55;;;17.20;99.90;;;;;;2095845;28;20017;-71
2022/10/29 01:48:01;;;;;;;11.38;6.45;;;17.20;99.90;;;;;;2094733;28;20031;-71
2022/10/29 01:49:08;;;;;;;12.27;7.07;;;17.20;99.90;;;;;;2094799;28;20036;-71
2022/10/29 01:50:14;;;;;;;14.00;6.57;;;17.20;99.90;;;;;;2094858;28;20039;-71
2022/10/29 01:51:22;;;;;;;11.48;7.18;;;17.20;99.90;;;;;;2091215;28;20115;-71
2022/10/29 01:52:26;;;;;;;12.48;7.22;;;17.20;99.90;;;;;;2095145;28;20082;-71
2022/10/29 01:53:28;;;;;;;16.75;6.82;;;17.20;99.90;;;;;;2092109;28;20498;-71
2022/10/29 01:54:29;;;;;;;11.95;6.57;;;17.20;99.90;;;;;;2094897;28;20025;-71
2022/10/29 01:55:34;;;;;;;10.27;6.00;;;17.20;99.90;;;;;;2093459;28;20029;-71
2022/10/29 01:56:34;;;;;;;14.05;5.75;;;17.20;99.90;;;;;;2094750;28;20031;-71
2022/10/29 01:57:37;;;;;;;16.80;6.78;;;17.20;99.90;;;;;;2093529;28;20031;-71
2022/10/29 01:58:41;;;;;;;11.73;6.55;;;17.20;99.90;;;;;;2092202;28;21386;-71
2022/10/29 01:59:42;;;;;;;9.90;6.35;;;17.20;99.90;;;;;;2096829;28;20024;-71
2022/10/29 02:00:54;;;;;;;14.05;6.88;;;17.10;99.90;;;;;;2095598;28;20558;-71
2022/10/29 02:02:27;;;;;;;11.88;6.30;;;17.10;99.90;;;;;;2093025;28;20032;-71
2022/10/29 02:03:33;;;;;;;9.43;6.00;;;17.10;99.90;;;;;;2093561;28;20100;-70
2022/10/29 02:04:39;;;;;;;16.83;7.05;;;17.10;99.90;;;;;;2094908;28;20020;-70
2022/10/29 02:06:04;;;;;;;14.35;7.78;;;17.10;99.90;;;;;;2093461;28;20032;-70
2022/10/29 02:07:32;;;;;;;15.13;6.60;;;17.10;99.90;;;;;;2094802;28;20012;-70
2022/10/29 02:09:06;;;;;;;10.38;5.85;;;17.10;99.90;;;;;;2093666;28;20176;-70
2022/10/29 02:10:27;;;;;;;16.00;7.13;;;17.00;99.90;;;;;;2094954;28;20099;-70
2022/10/29 02:11:56;;;;;;;10.20;6.00;;;17.00;99.90;;;;;;2093370;28;20055;-70
2022/10/29 02:12:57;;;;;;;14.43;7.05;;;17.00;99.90;;;;;;2085360;28;20116;-70
2022/10/29 02:14:10;;;;;;;11.35;6.65;;;16.90;99.90;;;;;;2092533;28;20040;-70
2022/10/29 02:15:16;;;;;;;13.52;6.47;;;17.00;99.90;;;;;;2093860;28;20047;-70
2022/10/29 02:16:18;;;;;;;16.00;7.43;;;16.90;99.90;;;;;;2086977;28;20025;-70
2022/10/29 02:17:18;;;;;;;14.43;6.63;;;16.90;99.90;;;;;;2092099;28;20021;-70
2022/10/29 02:18:19;;;;;;;12.23;7.07;;;17.00;99.90;;;;;;2095177;28;20044;-70
2022/10/29 02:19:20;;;;;;;12.52;6.32;;;17.00;99.90;;;;;;2095389;28;20583;-70
2022/10/29 02:20:20;;;;;;;21.13;7.68;;;16.90;99.90;;;;;;2093443;28;20236;-70
2022/10/29 02:21:21;;;;;;;17.02;6.45;;;16.90;99.90;;;;;;2095639;28;20039;-70
2022/10/29 02:22:21;;;;;;;14.10;6.38;;;16.90;99.90;;;;;;2094906;28;20034;-70
2022/10/29 02:23:22;;;;;;;14.77;7.32;;;16.90;99.90;;;;;;2093045;28;20104;-70
2022/10/29 02:24:23;;;;;;;16.52;6.97;;;16.90;99.90;;;;;;2094537;28;20569;-70
2022/10/29 02:25:24;;;;;;;14.05;7.10;;;16.90;99.90;;;;;;2093777;28;20037;-70
2022/10/29 02:26:24;;;;;;;15.05;7.32;;;16.90;99.90;;;;;;2095266;28;20033;-70
2022/10/29 02:27:25;;;;;;;15.15;7.70;;;16.90;99.90;;;;;;2096865;28;20330;-70
2022/10/29 02:28:25;;;;;;;12.27;6.28;;;16.90;99.90;;;;;;2094455;28;20012;-70
2022/10/29 02:29:26;;;;;;;15.40;5.90;;;16.80;99.90;;;;;;2095298;28;20044;-70
2022/10/29 02:30:27;;;;;;;14.20;6.75;;;16.80;99.90;;;;;;2092771;28;20104;-70
2022/10/29 02:31:28;;;;;;;13.50;6.60;;;16.80;99.90;;;;;;2094893;28;20038;-70
2022/10/29 02:32:31;;;;;;;14.48;6.60;;;16.80;99.90;;;;;;2093963;28;20543;-70
2022/10/29 02:33:31;;;;;;;12.20;6.32;;;16.80;99.90;;;;;;2093066;28;20037;-70
2022/10/29 02:34:32;;;;;;;13.65;7.30;;;16.80;99.90;;;;;;2092729;28;20027;-71
2022/10/29 02:35:32;;;;;;;12.13;6.18;;;16.80;99.90;;;;;;2096394;28;20050;-71
2022/10/29 02:36:33;;;;;;;20.67;7.45;;;16.80;99.90;;;;;;2095136;28;20069;-71
2022/10/29 02:37:34;;;;;;;10.55;6.22;;;16.80;99.90;;;;;;2096395;28;20107;-71
2022/10/29 02:38:34;;;;;;;11.50;6.78;;;16.70;99.90;;;;;;2094077;28;20031;-71
2022/10/29 02:39:35;;;;;;;12.60;6.25;;;16.70;99.90;;;;;;2092605;28;20668;-71
2022/10/29 02:40:35;;;;;;;11.65;6.78;;;16.70;99.90;;;;;;2093399;28;20035;-70
2022/10/29 02:41:36;;;;;;;12.48;6.32;;;16.70;99.90;;;;;;2093265;28;20039;-70
2022/10/29 02:42:36;;;;;;;18.52;7.30;;;16.70;99.90;;;;;;2094135;28;20396;-70
2022/10/29 02:43:37;;;;;;;13.63;6.38;;;16.70;99.90;;;;;;2093484;28;20020;-70
2022/10/29 02:44:37;;;;;;;9.95;6.20;;;16.70;99.90;;;;;;2092917;28;20059;-70
2022/10/29 02:45:38;;;;;;;15.55;6.53;;;16.70;99.90;;;;;;2092432;28;20025;-70
2022/10/29 02:46:39;;;;;;;10.32;5.88;;;16.70;99.90;;;;;;2093761;28;20027;-70
2022/10/29 02:47:39;;;;;;;14.50;6.47;;;16.70;99.90;;;;;;2093614;28;20042;-70
2022/10/29 02:48:40;;;;;;;12.88;6.30;;;16.70;99.90;;;;;;2096109;28;20032;-70
2022/10/29 02:49:41;;;;;;;12.63;6.57;;;16.60;99.90;;;;;;2094613;28;20463;-70
2022/10/29 02:50:41;;;;;;;9.35;6.65;;;16.60;99.90;;;;;;2094586;28;20744;-70
2022/10/29 02:51:42;;;;;;;13.57;6.40;;;16.60;99.90;;;;;;2095587;28;20088;-70
2022/10/29 02:52:42;;;;;;;15.05;6.88;;;16.60;99.90;;;;;;2093904;28;20098;-70
2022/10/29 02:53:43;;;;;;;12.95;6.68;;;16.60;99.90;;;;;;2092648;28;20155;-70
2022/10/29 02:54:44;;;;;;;17.05;6.90;;;16.60;99.90;;;;;;2093478;28;20263;-70
2022/10/29 02:55:44;;;;;;;11.48;5.97;;;16.60;99.90;;;;;;2092707;28;20107;-71
2022/10/29 02:56:45;;;;;;;12.25;6.28;;;16.50;99.90;;;;;;2095888;28;20490;-71
2022/10/29 02:57:45;;;;;;;12.45;6.72;;;16.60;99.90;;;;;;2092573;28;20048;-71
2022/10/29 02:58:46;;;;;;;13.55;6.65;;;16.60;99.90;;;;;;2092327;28;20041;-71
2022/10/29 02:59:46;;;;;;;9.23;6.55;;;16.60;99.90;;;;;;2096120;28;20040;-71
2022/10/29 03:00:50;;;;;;;11.27;7.03;;;16.50;99.90;;;;;;2092615;28;20537;-71
2022/10/29 03:01:51;;;;;;;12.90;6.97;;;16.50;99.90;;;;;;2095583;28;20036;-71
2022/10/29 03:02:51;;;;;;;16.00;6.80;;;16.50;99.90;;;;;;2093567;28;20024;-71
2022/10/29 03:03:52;;;;;;;14.75;6.15;;;16.50;99.90;;;;;;2094748;28;20052;-71
2022/10/29 03:04:52;;;;;;;11.82;6.18;;;16.50;99.90;;;;;;2095585;28;20024;-71
2022/10/29 03:05:53;;;;;;;14.13;6.05;;;16.50;99.90;;;;;;2094841;28;20473;-71
2022/10/29 03:06:53;;;;;;;12.88;5.85;;;16.50;99.90;;;;;;2094476;28;20024;-71
2022/10/29 03:07:54;;;;;;;10.98;6.65;;;16.50;99.90;;;;;;2092353;28;20029;-71
2022/10/29 03:08:55;;;;;;;14.05;7.28;;;16.50;99.90;;;;;;2095053;28;20380;-71
2022/10/29 03:09:55;;;;;;;16.13;7.20;;;16.50;99.90;;;;;;2095216;28;20020;-71
2022/10/29 03:10:56;;;;;;;9.85;6.18;;;16.50;99.90;;;;;;2092219;28;20656;-71
2022/10/29 03:11:56;;;;;;;15.00;6.70;;;16.40;99.90;;;;;;2096341;28;20025;-71
2022/10/29 03:13:00;;;;;;;11.60;6.63;;;16.40;99.90;;;;;;2094675;28;20024;-71
2022/10/29 03:14:01;;;;;;;13.75;6.18;;;16.40;99.90;;;;;;2096022;28;20035;-71
2022/10/29 03:15:01;;;;;;;11.68;6.30;;;16.40;99.90;;;;;;2097666;28;20028;-71
2022/10/29 03:16:02;;;;;;;12.38;6.38;;;16.40;99.90;;;;;;2092946;28;20529;-71
2022/10/29 03:17:03;;;;;;;15.82;6.47;;;16.40;99.90;;;;;;2098002;28;20077;-71
2022/10/29 03:18:04;;;;;;;11.40;6.60;;;16.40;99.90;;;;;;2097478;28;20430;-71
2022/10/29 03:19:04;;;;;;;11.05;6.05;;;16.40;99.90;;;;;;2096745;28;20472;-71
2022/10/29 03:20:05;;;;;;;10.57;6.35;;;16.40;99.90;;;;;;2097676;28;20407;-71
2022/10/29 03:21:06;;;;;;;15.35;6.80;;;16.40;99.90;;;;;;2095086;28;20024;-71
2022/10/29 03:22:06;;;;;;;14.95;6.72;;;16.40;99.90;;;;;;2097106;28;20756;-71
2022/10/29 03:23:07;;;;;;;13.15;6.90;;;16.30;99.90;;;;;;2095474;28;20062;-71
2022/10/29 03:24:07;;;;;;;14.32;6.60;;;16.30;99.90;;;;;;2096332;28;20127;-71
2022/10/29 03:25:08;;;;;;;19.63;6.40;;;16.30;99.90;;;;;;2094845;28;21328;-71
2022/10/29 03:26:12;;;;;;;11.30;6.95;;;16.30;99.90;;;;;;2096348;28;20526;-71
2022/10/29 03:27:12;;;;;;;11.18;6.28;;;16.30;99.90;;;;;;2094988;28;20035;-71
2022/10/29 03:28:13;;;;;;;17.38;8.38;;;16.30;99.90;;;;;;2094948;28;20033;-71
2022/10/29 03:29:13;;;;;;;13.73;7.32;;;16.30;99.90;;;;;;2096742;28;20505;-71
2022/10/29 03:30:16;;;;;;;15.55;7.75;;;16.30;99.90;;;;;;2095634;28;20028;-71
2022/10/29 03:31:16;;;;;;;12.10;6.15;;;16.30;99.90;;;;;;2096757;28;20035;-71
2022/10/29 03:32:17;;;;;;;11.57;7.20;;;16.30;99.90;;;;;;2096808;28;20032;-71
2022/10/29 03:33:17;;;;;;;12.50;6.53;;;16.30;99.90;;;;;;2094749;28;20029;-71
2022/10/29 03:34:18;;;;;;;12.23;6.35;;;16.30;99.90;;;;;;2096046;28;20031;-71
2022/10/29 03:35:18;;;;;;;12.10;6.90;;;16.30;99.90;;;;;;2093878;28;20070;-71
2022/10/29 03:36:19;;;;;;;13.90;6.35;;;16.30;99.90;;;;;;2092909;28;20709;-71
2022/10/29 03:37:20;;;;;;;13.27;6.47;;;16.30;99.90;;;;;;2095074;28;20392;-71
2022/10/29 03:38:20;;;;;;;15.30;7.63;;;16.30;99.90;;;;;;2095579;28;20033;-71
2022/10/29 03:39:21;;;;;;;10.60;6.38;;;16.30;99.90;;;;;;2095822;28;20112;-71
2022/10/29 03:40:21;;;;;;;10.80;6.35;;;16.30;99.90;;;;;;2096863;28;20478;-71
2022/10/29 03:41:22;;;;;;;14.18;7.00;;;16.30;99.90;;;;;;2094909;28;20099;-71
2022/10/29 03:42:22;;;;;;;13.75;6.65;;;16.20;99.90;;;;;;2097327;28;20024;-71
2022/10/29 03:43:23;;;;;;;18.13;7.05;;;16.20;99.90;;;;;;2094807;28;20055;-71
2022/10/29 03:44:24;;;;;;;15.38;6.80;;;16.20;99.90;;;;;;2094701;28;20023;-71
2022/10/29 03:45:24;;;;;;;12.18;6.45;;;16.20;99.90;;;;;;2096781;28;20035;-71
2022/10/29 03:46:25;;;;;;;14.27;6.95;;;16.20;99.90;;;;;;2095740;28;21061;-71
2022/10/29 03:47:27;;;;;;;17.23;7.60;;;16.20;99.90;;;;;;2096733;28;20478;-71
2022/10/29 03:48:27;;;;;;;17.08;7.57;;;16.20;99.90;;;;;;2095387;28;20066;-71
2022/10/29 03:49:28;;;;;;;19.90;7.55;;;16.20;99.90;;;;;;2096611;28;20021;-71
2022/10/29 03:50:28;;;;;;;11.57;6.55;;;16.20;99.90;;;;;;2095291;28;20499;-71
2022/10/29 03:51:29;;;;;;;11.50;6.50;;;16.20;99.90;;;;;;2093979;28;20029;-71
2022/10/29 03:52:29;;;;;;;12.75;6.97;;;16.20;99.90;;;;;;2094472;28;20427;-71
2022/10/29 03:53:31;;;;;;;13.73;6.95;;;16.20;99.90;;;;;;2096593;28;20392;-71
2022/10/29 03:54:31;;;;;;;13.20;8.13;;;16.20;99.90;;;;;;2096468;28;20759;-71
2022/10/29 03:55:32;;;;;;;14.20;7.07;;;16.20;99.90;;;;;;2095739;28;20029;-71
2022/10/29 03:56:32;;;;;;;13.00;7.35;;;16.10;99.90;;;;;;2096568;28;20039;-71
2022/10/29 03:57:33;;;;;;;11.20;6.95;;;16.10;99.90;;;;;;2096379;28;20036;-71
2022/10/29 03:58:33;;;;;;;12.38;6.80;;;16.10;99.90;;;;;;2096813;28;20527;-71
2022/10/29 03:59:34;;;;;;;11.10;6.18;;;16.10;99.90;;;;;;2095189;28;20179;-71
2022/10/29 04:00:34;;;;;;;11.02;6.40;;;16.10;99.90;;;;;;2094254;28;20040;-71
2022/10/29 04:01:35;;;;;;;12.50;7.57;;;16.10;99.90;;;;;;2095323;28;20062;-71
2022/10/29 04:02:35;;;;;;;11.40;6.70;;;16.10;99.90;;;;;;2093468;28;20539;-70
2022/10/29 04:03:37;;;;;;;10.45;6.32;;;16.10;99.90;;;;;;2096296;28;20028;-70
2022/10/29 04:04:38;;;;;;;11.02;6.20;;;16.10;99.90;;;;;;2095744;28;20126;-70
2022/10/29 04:05:38;;;;;;;13.02;6.70;;;16.10;99.90;;;;;;2094185;28;20029;-70
2022/10/29 04:06:39;;;;;;;12.50;7.60;;;16.10;99.90;;;;;;2096714;28;20020;-70
2022/10/29 04:07:40;;;;;;;13.18;6.88;;;16.10;99.90;;;;;;2094385;28;20444;-70
2022/10/29 04:08:41;;;;;;;11.10;6.25;;;16.10;99.90;;;;;;2096766;28;20509;-70
2022/10/29 04:09:42;;;;;;;9.82;6.18;;;16.10;99.90;;;;;;2098129;28;20913;-70
2022/10/29 04:10:46;;;;;;;14.00;7.18;;;16.10;99.90;;;;;;2096564;28;20162;-70
2022/10/29 04:11:47;;;;;;;16.88;6.97;;;16.10;99.90;;;;;;2095435;28;20488;-70
2022/10/29 04:12:47;;;;;;;10.45;6.20;;;16.10;99.90;;;;;;2093700;28;20064;-70
2022/10/29 04:13:51;;;;;;;14.95;7.15;;;16.10;99.90;;;;;;2093977;28;20461;-70
2022/10/29 04:14:52;;;;;;;11.63;6.90;;;16.10;99.90;;;;;;2097212;28;20436;-70
2022/10/29 04:15:54;;;;;;;10.38;6.32;;;16.10;99.90;;;;;;2092656;28;20082;-70
2022/10/29 04:16:54;;;;;;;12.15;7.35;;;16.10;99.90;;;;;;2096163;28;20044;-70
2022/10/29 04:17:55;;;;;;;12.77;6.57;;;16.10;99.90;;;;;;2097630;28;20067;-70
2022/10/29 04:18:55;;;;;;;8.82;6.57;;;16.10;99.90;;;;;;2094196;28;20028;-70
2022/10/29 04:19:56;;;;;;;13.23;6.72;;;16.10;99.90;;;;;;2096557;28;20036;-70
2022/10/29 04:21:01;;;;;;;21.92;8.05;;;16.10;99.90;;;;;;2094764;28;20052;-70
2022/10/29 04:22:01;;;;;;;13.70;6.55;;;16.10;99.90;;;;;;2094395;28;20111;-70
2022/10/29 04:23:02;;;;;;;14.52;7.20;;;16.00;99.90;;;;;;2094556;28;20032;-70
2022/10/29 04:24:02;;;;;;;17.35;7.68;;;16.00;99.90;;;;;;2092523;28;20099;-70
2022/10/29 04:25:03;;;;;;;13.23;7.43;;;16.10;99.90;;;;;;2095050;28;20021;-70
2022/10/29 04:26:04;;;;;;;14.93;6.47;;;16.10;99.90;;;;;;2092402;28;20206;-70
2022/10/29 04:27:04;;;;;;;17.60;7.38;;;16.10;99.90;;;;;;2095642;28;20036;-70
2022/10/29 04:28:05;;;;;;;12.07;6.32;;;16.00;99.90;;;;;;2095602;28;20048;-70
2022/10/29 04:29:05;;;;;;;17.33;7.65;;;16.00;99.90;;;;;;2097052;28;20028;-70
2022/10/29 04:30:07;;;;;;;10.65;6.38;;;16.00;99.90;;;;;;2095573;28;20044;-70
2022/10/29 04:31:10;;;;;;;11.25;6.32;;;16.10;99.90;;;;;;2093319;28;20107;-71
2022/10/29 04:32:11;;;;;;;9.70;6.20;;;16.10;99.90;;;;;;2096828;28;20036;-71
2022/10/29 04:33:11;;;;;;;11.27;6.47;;;16.10;99.90;;;;;;2094082;28;20031;-71
2022/10/29 04:34:12;;;;;;;13.25;6.72;;;16.10;99.90;;;;;;2094613;28;20435;-71
2022/10/29 04:35:12;;;;;;;10.18;6.35;;;16.00;99.90;;;;;;2095753;28;20044;-71
2022/10/29 04:36:13;;;;;;;17.75;7.45;;;16.00;99.90;;;;;;2094079;28;20048;-71
2022/10/29 04:37:13;;;;;;;12.68;6.50;;;16.00;99.90;;;;;;2096828;28;20035;-71
2022/10/29 04:38:14;;;;;;;14.18;7.30;;;16.10;99.90;;;;;;2094393;28;20032;-71
2022/10/29 04:39:14;;;;;;;13.65;6.38;;;16.00;99.90;;;;;;2094269;28;20476;-71
2022/10/29 04:40:15;;;;;;;16.17;6.97;;;16.00;99.90;;;;;;2103230;28;20020;-71
2022/10/29 04:41:16;;;;;;;10.27;6.38;;;16.00;99.90;;;;;;2103069;28;20139;-71
2022/10/29 04:42:16;;;;;;;21.42;7.40;;;16.00;99.90;;;;;;2096802;28;20551;-71
2022/10/29 04:43:17;;;;;;;14.02;6.88;;;16.00;99.90;;;;;;2091953;28;20044;-71
2022/10/29 04:44:18;;;;;;;11.27;7.15;;;16.00;99.90;;;;;;2096652;28;20020;-71
2022/10/29 04:45:19;;;;;;;11.43;7.10;;;16.00;99.90;;;;;;2095832;28;20019;-71
2022/10/29 04:46:19;;;;;;;14.40;7.85;;;16.00;99.90;;;;;;2097246;28;20040;-71
2022/10/29 04:47:20;;;;;;;8.95;6.63;;;16.00;99.90;;;;;;2096142;28;20020;-71
2022/10/29 04:48:21;;;;;;;14.23;7.50;;;16.00;99.90;;;;;;2094830;28;20585;-71
2022/10/29 04:49:22;;;;;;;16.08;7.60;;;16.00;99.90;;;;;;2092222;28;20024;-71
2022/10/29 04:50:22;;;;;;;19.13;7.25;;;16.00;99.90;;;;;;2094743;28;20021;-71
2022/10/29 04:51:25;;;;;;;17.92;8.50;;;16.00;99.90;;;;;;2091482;28;20036;-71
2022/10/29 04:52:26;;;;;;;13.00;7.63;;;16.00;99.90;;;;;;2095150;28;20357;-71
2022/10/29 04:53:26;;;;;;;16.02;7.82;;;16.00;99.90;;;;;;2093139;28;20175;-71
2022/10/29 04:54:27;;;;;;;15.27;7.22;;;16.00;99.90;;;;;;2095680;28;20028;-71
2022/10/29 04:55:28;;;;;;;14.50;6.90;;;16.00;99.90;;;;;;2095971;28;20107;-71
2022/10/29 04:56:29;;;;;;;15.75;6.80;;;16.00;99.90;;;;;;2093639;28;20440;-71
2022/10/29 04:57:30;;;;;;;14.80;6.82;;;16.00;99.90;;;;;;2094354;28;20439;-71
2022/10/29 04:58:30;;;;;;;11.88;6.53;;;16.00;99.90;;;;;;2097467;28;20125;-71
2022/10/29 04:59:31;;;;;;;12.95;6.97;;;16.00;99.90;;;;;;2095887;28;20025;-71
2022/10/29 05:00:32;;;;;;;9.48;6.35;;;16.00;99.90;;;;;;2096517;28;20035;-71
2022/10/29 05:01:32;;;;;;;13.07;6.90;;;16.00;99.90;;;;;;2092835;28;20024;-71
2022/10/29 05:02:34;;;;;;;8.10;6.80;;;15.90;99.90;;;;;;2093269;28;20118;-71
2022/10/29 05:03:35;;;;;;;17.85;7.35;;;15.90;99.90;;;;;;2094543;28;20028;-71
2022/10/29 05:04:36;;;;;;;15.88;7.88;;;15.90;99.90;;;;;;2095377;28;20062;-71
2022/10/29 05:05:38;;;;;;;11.73;6.97;;;15.90;99.90;;;;;;2095547;28;20020;-71
2022/10/29 05:06:38;;;;;;;15.93;6.93;;;16.00;99.90;;;;;;2094721;28;20028;-71
2022/10/29 05:07:39;;;;;;;12.50;7.63;;;16.00;99.90;;;;;;2094587;28;20024;-71
2022/10/29 05:08:39;;;;;;;17.05;8.13;;;16.00;99.90;;;;;;2096059;28;20046;-71
2022/10/29 05:09:40;;;;;;;14.32;7.75;;;15.90;99.90;;;;;;2095504;28;20024;-71
2022/10/29 05:10:40;;;;;;;13.70;7.28;;;15.90;99.90;;;;;;2095456;28;20050;-71
2022/10/29 05:11:41;;;;;;;13.25;7.10;;;15.90;99.90;;;;;;2094942;28;20047;-71
2022/10/29 05:12:41;;;;;;;9.50;7.20;;;15.90;99.90;;;;;;2094859;28;20032;-71
2022/10/29 05:13:44;;;;;;;16.70;7.70;;;15.90;99.90;;;;;;2095788;28;20047;-71
2022/10/29 05:14:44;;;;;;;10.05;6.43;;;15.90;99.90;;;;;;2095593;28;20033;-71
2022/10/29 05:15:49;;;;;;;13.07;7.55;;;15.90;99.90;;;;;;2095129;28;20022;-71
2022/10/29 05:16:50;;;;;;;15.43;8.57;;;15.90;99.90;;;;;;2094409;28;20488;-71
2022/10/29 05:17:50;;;;;;;19.92;9.23;;;15.90;99.90;;;;;;2095814;28;20502;-71
2022/10/29 05:18:51;;;;;;;18.05;10.02;;;16.00;99.90;;;;;;2094966;28;20025;-71
2022/10/29 05:19:51;;;;;;;18.60;9.63;;;16.00;99.90;;;;;;2095399;28;20028;-71
2022/10/29 05:20:55;;;;;;;21.48;9.25;;;16.00;99.90;;;;;;2093423;28;20675;-71
2022/10/29 05:21:56;;;;;;;19.05;9.85;;;16.00;99.90;;;;;;2095344;28;20093;-71
2022/10/29 05:23:00;;;;;;;18.42;10.23;;;16.10;99.90;;;;;;2094974;28;20078;-71
2022/10/29 05:24:01;;;;;;;20.85;9.35;;;16.10;99.90;;;;;;2092640;28;20028;-71
2022/10/29 05:25:01;;;;;;;16.15;9.70;;;16.10;99.90;;;;;;2095370;28;20135;-71
2022/10/29 05:26:02;;;;;;;20.88;9.60;;;16.10;99.90;;;;;;2094054;28;20047;-71
2022/10/29 05:27:05;;;;;;;22.80;10.55;;;16.10;99.90;;;;;;2093316;28;24723;-71